»·PEaware :: SKW3657 KMSP-KMSO

SKW3657 :: KMSP-KMSO

FLIGHT INFORMATION

Flight Status: Arrived
Operator:
SkyWest Airlines
More flights by this operator :: More flights under this callsign
Pilot: Leo L. (42155)
Aircraft: EMBRAER EMB-170/175
(E170)
More flights by this aircraft type
Origin: KMSP Minneapolis-St Paul Intl
United States
Destination: KMSO Missoula Intl
United States
More flights between these airports :: More routes between these airports
Route: SMERF7 SMERF KP09A DIK J70 LWT MSO
File this flight plan on PilotEdge
Remarks: RMK / SIMBRIEF
Altitude:
(Current/Filed)
34,000ft
Speed:
(Current/Filed)
448kts
Departed: 25-Feb-23 04:49 PM
Arrived: 25-Feb-23 07:19 PM
Distance/Time
Traveled:
877nm/2:30
Distance/Time
To Go:
Arrived

Flight Plot

Page will automatically refresh every two minutes.

Flight plan parsing failed; only flown route is shown


Map Options




Map Legend


Flown Route
Filed Route
Departure Airport
Arrival Airport
Navaid (VOR, NDB)
Fix

Horizontal Profiles

Position Reports

Time Latitude Longitude Heading Altitude Ground
Speed
25-Feb-23 16:36 44.882432 -93.203241 243 847ft 0kts
25-Feb-23 16:37 44.882432 -93.203241 243 847ft 0kts
25-Feb-23 16:38 44.882624 -93.202648 243 847ft 1kts
25-Feb-23 16:39 44.882628 -93.202638 243 847ft 0kts
25-Feb-23 16:40 44.882628 -93.202638 243 847ft 0kts
25-Feb-23 16:41 44.882647 -93.202711 318 847ft 1kts
25-Feb-23 16:42 44.885135 -93.207126 301 847ft 25kts
25-Feb-23 16:43 44.886381 -93.216381 225 847ft 19kts
25-Feb-23 16:44 44.883079 -93.220110 134 847ft 16kts
25-Feb-23 16:45 44.880282 -93.213815 120 847ft 21kts
25-Feb-23 16:46 44.876911 -93.205968 123 847ft 24kts
25-Feb-23 16:47 44.874126 -93.202547 301 847ft 30kts
25-Feb-23 16:48 44.891286 -93.263454 280 2899ft 224kts
25-Feb-23 16:49 44.910938 -93.346431 298 5420ft 222kts
25-Feb-23 16:50 44.943075 -93.420687 294 6986ft 221kts
25-Feb-23 16:51 44.968917 -93.499252 293 6995ft 219kts
25-Feb-23 16:52 44.994187 -93.578496 292 7159ft 215kts
25-Feb-23 16:53 45.019282 -93.657592 291 9679ft 223kts
25-Feb-23 16:54 45.047182 -93.745908 290 12284ft 273kts
25-Feb-23 16:56 45.078227 -93.844593 291 14809ft 277kts
25-Feb-23 16:57 45.105553 -93.947299 287 17333ft 281kts
25-Feb-23 16:58 45.131291 -94.052722 287 19852ft 288kts
25-Feb-23 16:59 45.158089 -94.163020 287 22395ft 298kts
25-Feb-23 17:00 45.185375 -94.275956 287 24891ft 310kts
25-Feb-23 17:01 45.213990 -94.395093 287 27405ft 323kts
25-Feb-23 17:02 45.243588 -94.518994 287 29886ft 338kts
25-Feb-23 17:03 45.274353 -94.648522 287 31776ft 354kts
25-Feb-23 17:04 45.305763 -94.781506 286 33686ft 353kts
25-Feb-23 17:05 45.337070 -94.914915 286 34030ft 352kts
25-Feb-23 17:06 45.367965 -95.047350 286 34045ft 353kts
25-Feb-23 17:07 45.398904 -95.180773 286 34043ft 354kts
25-Feb-23 17:08 45.429779 -95.314813 286 34041ft 355kts
25-Feb-23 17:09 45.460611 -95.449351 286 34034ft 356kts
25-Feb-23 17:10 45.491311 -95.584230 287 34023ft 357kts
25-Feb-23 17:11 45.521956 -95.719730 286 34027ft 358kts
25-Feb-23 17:12 45.552579 -95.855974 286 34016ft 358kts
25-Feb-23 17:13 45.583013 -95.992196 286 34006ft 358kts
25-Feb-23 17:14 45.613317 -96.128811 287 34018ft 359kts
25-Feb-23 17:15 45.643455 -96.265476 286 34040ft 360kts
25-Feb-23 17:16 45.673495 -96.402661 286 34039ft 360kts
25-Feb-23 17:17 45.703445 -96.540258 286 34035ft 359kts
25-Feb-23 17:18 45.733138 -96.677717 286 34050ft 359kts
25-Feb-23 17:18 45.757740 -96.792166 286 34048ft 359kts
25-Feb-23 17:20 45.791845 -96.951942 285 34044ft 358kts
25-Feb-23 17:21 45.821024 -97.089654 285 34030ft 358kts
25-Feb-23 17:22 45.849859 -97.226651 285 34013ft 357kts
25-Feb-23 17:22 45.873757 -97.340891 285 34012ft 357kts
25-Feb-23 17:23 45.902171 -97.477589 286 34007ft 357kts
25-Feb-23 17:24 45.932396 -97.613928 288 34004ft 356kts
25-Feb-23 17:26 45.971516 -97.770584 288 34023ft 356kts
25-Feb-23 17:26 45.999364 -97.882648 288 34022ft 355kts
25-Feb-23 17:27 46.032528 -98.016803 288 34017ft 355kts
25-Feb-23 17:28 46.065628 -98.151415 288 34013ft 355kts
25-Feb-23 17:29 46.098510 -98.286159 288 34017ft 355kts
25-Feb-23 17:30 46.130438 -98.417689 288 34016ft 356kts
25-Feb-23 17:31 46.163565 -98.554957 288 34003ft 356kts
25-Feb-23 17:32 46.196181 -98.690973 287 34002ft 357kts
25-Feb-23 17:33 46.228572 -98.826833 287 33991ft 357kts
25-Feb-23 17:34 46.261126 -98.964246 287 33983ft 358kts
25-Feb-23 17:35 46.293486 -99.101652 287 33981ft 359kts
25-Feb-23 17:36 46.325669 -99.239258 287 33979ft 360kts
25-Feb-23 17:37 46.357828 -99.377591 287 33976ft 361kts
25-Feb-23 17:38 46.389951 -99.516632 287 33973ft 362kts
25-Feb-23 17:39 46.421806 -99.655455 286 33969ft 362kts
25-Feb-23 17:40 46.453557 -99.794690 287 33965ft 363kts
25-Feb-23 17:41 46.485149 -99.934142 287 33955ft 363kts
25-Feb-23 17:42 46.510808 -100.076271 281 33953ft 364kts
25-Feb-23 17:43 46.531297 -100.220751 281 33951ft 364kts
25-Feb-23 17:44 46.551542 -100.365306 281 33949ft 364kts
25-Feb-23 17:45 46.571542 -100.509513 281 33946ft 364kts
25-Feb-23 17:46 46.591388 -100.654032 280 33945ft 365kts
25-Feb-23 17:47 46.611094 -100.798959 280 33956ft 365kts
25-Feb-23 17:48 46.630655 -100.944276 280 33954ft 366kts
25-Feb-23 17:49 46.650088 -101.090106 280 33925ft 366kts
25-Feb-23 17:50 46.669363 -101.236286 280 33923ft 367kts
25-Feb-23 17:51 46.688498 -101.382735 280 33921ft 368kts
25-Feb-23 17:52 46.707415 -101.529395 280 33919ft 369kts
25-Feb-23 17:53 46.726225 -101.676700 279 33929ft 369kts
25-Feb-23 17:54 46.744852 -101.823976 279 33930ft 370kts
25-Feb-23 17:55 46.763318 -101.971675 279 33929ft 370kts
25-Feb-23 17:56 46.781697 -102.120302 279 33907ft 372kts
25-Feb-23 17:57 46.799887 -102.269075 279 33880ft 372kts
25-Feb-23 17:58 46.817935 -102.418377 279 33880ft 373kts
25-Feb-23 17:59 46.835801 -102.567866 279 33884ft 373kts
25-Feb-23 18:00 46.853504 -102.717757 279 33898ft 373kts
25-Feb-23 18:01 46.865472 -102.867923 275 33898ft 374kts
25-Feb-23 18:02 46.874124 -103.020154 275 33895ft 374kts
25-Feb-23 18:03 46.882534 -103.172122 275 33881ft 375kts
25-Feb-23 18:04 46.890772 -103.324720 275 33874ft 375kts
25-Feb-23 18:05 46.898811 -103.477387 275 33875ft 376kts
25-Feb-23 18:06 46.906669 -103.630524 275 33872ft 376kts
25-Feb-23 18:07 46.914313 -103.783487 274 33882ft 377kts
25-Feb-23 18:08 46.921761 -103.936704 274 33880ft 377kts
25-Feb-23 18:09 46.929045 -104.090769 274 33872ft 380kts
25-Feb-23 18:10 46.936161 -104.245859 274 33868ft 380kts
25-Feb-23 18:11 46.943061 -104.400546 274 33866ft 380kts
25-Feb-23 18:12 46.949731 -104.555224 274 33864ft 380kts
25-Feb-23 18:13 46.956204 -104.710044 273 33874ft 381kts
25-Feb-23 18:14 46.962474 -104.864862 273 33872ft 381kts
25-Feb-23 18:15 46.968564 -105.020564 273 33857ft 382kts
25-Feb-23 18:16 46.974446 -105.176415 273 33841ft 382kts
25-Feb-23 18:17 46.980110 -105.332106 273 33840ft 383kts
25-Feb-23 18:18 46.985565 -105.487903 273 33838ft 383kts
25-Feb-23 18:19 46.990811 -105.643820 273 33836ft 383kts
25-Feb-23 18:20 46.995865 -105.800286 272 33846ft 384kts
25-Feb-23 18:21 47.000722 -105.957383 273 33829ft 385kts
25-Feb-23 18:22 47.005385 -106.115166 272 33806ft 387kts
25-Feb-23 18:23 47.009839 -106.273420 272 33804ft 388kts
25-Feb-23 18:24 47.014069 -106.431529 273 33802ft 388kts
25-Feb-23 18:25 47.018108 -106.590467 273 33791ft 388kts
25-Feb-23 18:26 47.021908 -106.748679 272 33800ft 389kts
25-Feb-23 18:27 47.025510 -106.907888 272 33798ft 389kts
25-Feb-23 18:28 47.028896 -107.067302 272 33797ft 390kts
25-Feb-23 18:29 47.032063 -107.226865 272 33795ft 391kts
25-Feb-23 18:30 47.035001 -107.386745 272 33793ft 391kts
25-Feb-23 18:31 47.037743 -107.546827 272 33791ft 392kts
25-Feb-23 18:32 47.040259 -107.707693 272 33799ft 392kts
25-Feb-23 18:33 47.042564 -107.868461 272 33798ft 392kts
25-Feb-23 18:34 47.044603 -108.028735 272 33795ft 396kts
25-Feb-23 18:35 47.046472 -108.190666 272 33763ft 397kts
25-Feb-23 18:36 47.048097 -108.352532 272 33748ft 397kts
25-Feb-23 18:37 47.049504 -108.515441 272 33747ft 398kts
25-Feb-23 18:38 47.050672 -108.678334 271 33753ft 398kts
25-Feb-23 18:39 47.051622 -108.840626 271 33752ft 399kts
25-Feb-23 18:40 47.052340 -109.004100 271 33751ft 401kts
25-Feb-23 18:41 47.052813 -109.167520 271 33749ft 401kts
25-Feb-23 18:42 47.053073 -109.331209 271 33748ft 402kts
25-Feb-23 18:43 47.053089 -109.495646 271 33747ft 402kts
25-Feb-23 18:44 47.052243 -109.659980 270 33747ft 403kts
25-Feb-23 18:45 47.049965 -109.824731 270 33752ft 403kts
25-Feb-23 18:46 47.047408 -109.989718 270 33750ft 403kts
25-Feb-23 18:47 47.044608 -110.155460 270 33734ft 406kts
25-Feb-23 18:48 47.041558 -110.321519 270 33732ft 406kts
25-Feb-23 18:49 47.038288 -110.486834 270 33727ft 406kts
25-Feb-23 18:50 47.034759 -110.653065 269 33728ft 407kts
25-Feb-23 18:51 47.031012 -110.818356 269 33732ft 407kts
25-Feb-23 18:52 47.027002 -110.984592 269 33732ft 408kts
25-Feb-23 18:53 47.022758 -111.150517 269 33732ft 408kts
25-Feb-23 18:54 47.018243 -111.317476 269 33731ft 409kts
25-Feb-23 18:55 47.013499 -111.483870 269 33729ft 409kts
25-Feb-23 18:56 47.008533 -111.649809 269 33725ft 409kts
25-Feb-23 18:57 47.003293 -111.816871 269 33733ft 410kts
25-Feb-23 18:58 46.997764 -111.984629 269 31694ft 416kts
25-Feb-23 18:59 46.991961 -112.153824 269 29578ft 408kts
25-Feb-23 19:00 46.986351 -112.311474 269 27565ft 392kts
25-Feb-23 19:01 46.980548 -112.467914 268 25547ft 377kts
25-Feb-23 19:02 46.974750 -112.618501 267 23658ft 364kts
25-Feb-23 19:03 46.968941 -112.764238 266 21851ft 352kts
25-Feb-23 19:04 46.963178 -112.904754 266 20074ft 338kts
25-Feb-23 19:05 46.957433 -113.040631 266 18363ft 327kts
25-Feb-23 19:06 46.951741 -113.171736 266 16653ft 316kts
25-Feb-23 19:07 46.946163 -113.296925 266 15005ft 299kts
25-Feb-23 19:08 46.940832 -113.413874 265 13455ft 275kts
25-Feb-23 19:09 46.935813 -113.521705 265 12037ft 253kts
25-Feb-23 19:10 46.930998 -113.623139 265 10928ft 252kts
25-Feb-23 19:11 46.925938 -113.727873 263 9605ft 260kts
25-Feb-23 19:12 46.920610 -113.835357 263 8436ft 264kts
25-Feb-23 19:13 46.949341 -113.932454 296 7255ft 251kts
25-Feb-23 19:14 46.973016 -114.024240 288 5926ft 232kts
25-Feb-23 19:15 46.984145 -114.107069 230 4978ft 168kts
25-Feb-23 19:16 46.949722 -114.135408 158 4191ft 145kts
25-Feb-23 19:17 46.919895 -114.098074 131 3197ft 119kts
25-Feb-23 19:18 46.914147 -114.084589 311 3203ft 12kts
25-Feb-23 19:19 46.917775 -114.084627 63 3206ft 6kts
25-Feb-23 19:20 46.918082 -114.084262 50 3206ft 0kts
25-Feb-23 19:21 46.918082 -114.084262 50 3206ft 0kts
25-Feb-23 19:22 46.918082 -114.084262 50 3206ft 0kts

Navigation Log

Ident Type
Flight plan parsing failed, navigation log unavailable